Time,TemperatureF,DewpointF,PressureIn,WindDirection,WindDirectionDegrees,WindSpeedMPH,WindSpeedGustMPH,Humidity,HourlyPrecipIn,Conditions,Clouds,dailyrainin,SoftwareType,DateUTC
2013-01-09 00:12:00,70.7,69.0,30.14,ESE,103,1.0,3.0,94,0.00,,,0.00,weatherlink.com 1.10,2013-01-09 05:12:00,
2013-01-09 00:27:00,70.6,69.0,30.14,East,94,2.0,4.0,94,0.00,,,0.00,weatherlink.com 1.10,2013-01-09 05:27:00,
2013-01-09 00:42:00,70.7,69.0,30.13,East,89,0.0,4.0,94,0.00,,,0.00,weatherlink.com 1.10,2013-01-09 05:42:00,
2013-01-09 00:57:00,70.7,69.0,30.13,East,96,1.0,3.0,94,0.00,,,0.00,weatherlink.com 1.10,2013-01-09 05:57:00,
2013-01-09 01:12:00,70.7,69.0,30.14,East,84,0.0,3.0,94,0.00,,,0.00,weatherlink.com 1.10,2013-01-09 06:12:00,
2013-01-09 01:27:00,70.7,69.0,30.14,East,90,1.0,3.0,94,0.00,,,0.00,weatherlink.com 1.10,2013-01-09 06:27:00,
2013-01-09 01:42:00,70.6,69.0,30.14,East,88,0.0,3.0,95,0.00,,,0.00,weatherlink.com 1.10,2013-01-09 06:42:00,
2013-01-09 01:57:00,70.8,69.0,30.14,East,85,5.0,5.0,95,0.00,,,0.00,weatherlink.com 1.10,2013-01-09 06:57:00,
2013-01-09 02:12:00,70.9,69.0,30.14,ENE,77,1.0,4.0,94,0.00,,,0.00,weatherlink.com 1.10,2013-01-09 07:12:00,
2013-01-09 02:27:00,70.8,69.0,30.14,ESE,102,0.0,3.0,94,0.00,,,0.00,weatherlink.com 1.10,2013-01-09 07:27:00,
2013-01-09 02:42:00,70.8,69.0,30.14,East,99,0.0,3.0,94,0.00,,,0.00,weatherlink.com 1.10,2013-01-09 07:42:00,
2013-01-09 02:57:00,70.7,69.0,30.14,ESE,107,1.0,2.0,94,0.00,,,0.00,weatherlink.com 1.10,2013-01-09 07:57:00,
2013-01-09 03:12:00,70.5,69.0,30.14,ESE,120,1.0,3.0,94,0.00,,,0.00,weatherlink.com 1.10,2013-01-09 08:12:00,
2013-01-09 03:27:00,70.3,69.0,30.14,ESE,110,0.0,2.0,95,0.00,,,0.00,weatherlink.com 1.10,2013-01-09 08:27:00,
2013-01-09 03:42:00,70.1,69.0,30.14,ESE,103,0.0,2.0,95,0.00,,,0.00,weatherlink.com 1.10,2013-01-09 08:42:00,
2013-01-09 03:57:00,70.0,69.0,30.14,ESE,105,0.0,3.0,95,0.00,,,0.00,weatherlink.com 1.10,2013-01-09 08:57:00,
2013-01-09 04:12:00,70.1,69.0,30.14,ESE,104,1.0,2.0,95,0.00,,,0.00,weatherlink.com 1.10,2013-01-09 09:12:00,
2013-01-09 04:27:00,70.3,69.0,30.14,ESE,103,2.0,3.0,96,0.00,,,0.00,weatherlink.com 1.10,2013-01-09 09:27:00,
2013-01-09 04:42:00,70.4,69.0,30.14,ESE,107,0.0,3.0,96,0.00,,,0.00,weatherlink.com 1.10,2013-01-09 09:42:00,
2013-01-09 04:57:00,70.3,69.0,30.14,ESE,103,1.0,4.0,95,0.00,,,0.00,weatherlink.com 1.10,2013-01-09 09:57:00,
2013-01-09 05:12:00,70.0,69.0,30.14,ESE,109,1.0,4.0,95,0.00,,,0.00,weatherlink.com 1.10,2013-01-09 10:12:00,
2013-01-09 05:27:00,69.8,68.0,30.14,ESE,109,0.0,2.0,95,0.00,,,0.00,weatherlink.com 1.10,2013-01-09 10:27:00,
2013-01-09 05:42:00,69.7,69.0,30.15,East,82,0.0,3.0,96,0.00,,,0.00,weatherlink.com 1.10,2013-01-09 10:42:00,
2013-01-09 05:57:00,69.7,69.0,30.15,ESE,102,0.0,3.0,96,0.00,,,0.00,weatherlink.com 1.10,2013-01-09 10:57:00,
2013-01-09 06:12:00,69.5,68.0,30.15,ESE,107,0.0,2.0,96,0.00,,,0.00,weatherlink.com 1.10,2013-01-09 11:12:00,
2013-01-09 06:27:00,69.5,68.0,30.16,ENE,77,0.0,3.0,96,0.00,,,0.00,weatherlink.com 1.10,2013-01-09 11:27:00,
2013-01-09 06:43:00,69.5,68.0,30.16,East,90,2.0,2.0,96,0.00,,,0.00,weatherlink.com 1.10,2013-01-09 11:43:00,
2013-01-09 06:58:00,69.4,68.0,30.17,ENE,69,2.0,2.0,96,0.00,,,0.00,weatherlink.com 1.10,2013-01-09 11:58:00,
2013-01-09 07:13:00,69.2,68.0,30.17,East,86,0.0,2.0,96,0.00,,,0.00,weatherlink.com 1.10,2013-01-09 12:13:00,
2013-01-09 07:28:00,69.2,68.0,30.18,East,86,0.0,2.0,96,0.00,,,0.00,weatherlink.com 1.10,2013-01-09 12:28:00,
2013-01-09 07:43:00,69.1,68.0,30.18,East,86,0.0,1.0,96,0.00,,,0.00,weatherlink.com 1.10,2013-01-09 12:43:00,
2013-01-09 07:58:00,69.2,68.0,30.19,East,86,1.0,2.0,96,0.00,,,0.00,weatherlink.com 1.10,2013-01-09 12:58:00,
2013-01-09 08:13:00,69.5,68.0,30.20,East,86,0.0,2.0,96,0.00,,,0.00,weatherlink.com 1.10,2013-01-09 13:13:00,
2013-01-09 08:28:00,70.0,69.0,30.20,East,87,0.0,2.0,97,0.00,,,0.00,weatherlink.com 1.10,2013-01-09 13:28:00,
2013-01-09 08:43:00,71.0,70.0,30.21,SE,143,1.0,2.0,97,0.00,,,0.00,weatherlink.com 1.10,2013-01-09 13:43:00,
2013-01-09 08:58:00,72.3,71.0,30.21,SE,126,0.0,4.0,95,0.00,,,0.00,weatherlink.com 1.10,2013-01-09 13:58:00,
2013-01-09 09:13:00,73.7,71.0,30.22,SE,142,2.0,8.0,92,0.00,,,0.00,weatherlink.com 1.10,2013-01-09 14:13:00,
2013-01-09 09:28:00,75.3,72.0,30.22,ESE,121,3.0,8.0,88,0.00,,,0.00,weatherlink.com 1.10,2013-01-09 14:28:00,
2013-01-09 09:43:00,76.9,71.0,30.22,ESE,113,0.0,6.0,83,0.00,,,0.00,weatherlink.com 1.10,2013-01-09 14:43:00,
2013-01-09 09:58:00,78.2,72.0,30.22,SSE,158,5.0,5.0,82,0.00,,,0.00,weatherlink.com 1.10,2013-01-09 14:58:00,
2013-01-09 10:13:00,79.1,72.0,30.22,SE,128,3.0,8.0,79,0.00,,,0.00,weatherlink.com 1.10,2013-01-09 15:13:00,
2013-01-09 10:28:00,80.3,72.0,30.22,SE,138,2.0,4.0,76,0.00,,,0.00,weatherlink.com 1.10,2013-01-09 15:28:00,
2013-01-09 10:58:00,83.2,72.0,30.21,SSE,160,5.0,7.0,69,0.00,,,0.00,weatherlink.com 1.10,2013-01-09 15:58:00,
2013-01-09 11:13:00,83.4,72.0,30.21,ESE,123,3.0,7.0,68,0.00,,,0.00,weatherlink.com 1.10,2013-01-09 16:13:00,
2013-01-09 11:28:00,82.8,72.0,30.21,ESE,117,0.0,6.0,69,0.00,,,0.00,weatherlink.com 1.10,2013-01-09 16:28:00,
2013-01-09 11:43:00,83.3,71.0,30.20,SE,128,1.0,6.0,66,0.00,,,0.00,weatherlink.com 1.10,2013-01-09 16:43:00,
2013-01-09 11:58:00,84.1,71.0,30.20,ESE,105,0.0,8.0,64,0.00,,,0.00,weatherlink.com 1.10,2013-01-09 16:58:00,
2013-01-09 12:13:00,83.6,70.0,30.19,SE,128,1.0,7.0,63,0.00,,,0.00,weatherlink.com 1.10,2013-01-09 17:13:00,
2013-01-09 12:28:00,83.9,70.0,30.18,ESE,122,1.0,8.0,63,0.00,,,0.00,weatherlink.com 1.10,2013-01-09 17:28:00,
2013-01-09 12:43:00,85.4,69.0,30.18,SSE,150,1.0,10.0,59,0.00,,,0.00,weatherlink.com 1.10,2013-01-09 17:43:00,
2013-01-09 12:58:00,85.7,69.0,30.18,SE,130,4.0,11.0,58,0.00,,,0.00,weatherlink.com 1.10,2013-01-09 17:58:00,
2013-01-09 13:14:00,86.6,70.0,30.17,SE,144,2.0,6.0,58,0.00,,,0.00,weatherlink.com 1.10,2013-01-09 18:14:00,
2013-01-09 13:29:00,86.3,69.0,30.16,ESE,105,2.0,7.0,56,0.00,,,0.00,weatherlink.com 1.10,2013-01-09 18:29:00,
2013-01-09 13:44:00,86.3,68.0,30.16,SE,130,2.0,8.0,54,0.00,,,0.00,weatherlink.com 1.10,2013-01-09 18:44:00,
2013-01-09 13:59:00,86.7,68.0,30.15,SE,128,2.0,8.0,53,0.00,,,0.00,weatherlink.com 1.10,2013-01-09 18:59:00,
2013-01-09 14:14:00,87.0,68.0,30.15,ESE,115,2.0,9.0,53,0.00,,,0.00,weatherlink.com 1.10,2013-01-09 19:14:00,
2013-01-09 14:29:00,87.5,68.0,30.15,East,88,1.0,9.0,52,0.00,,,0.00,weatherlink.com 1.10,2013-01-09 19:29:00,
2013-01-09 14:44:00,87.7,67.0,30.15,ESE,121,4.0,8.0,51,0.00,,,0.00,weatherlink.com 1.10,2013-01-09 19:44:00,
2013-01-09 14:59:00,88.1,68.0,30.14,SE,136,1.0,8.0,52,0.00,,,0.00,weatherlink.com 1.10,2013-01-09 19:59:00,
2013-01-09 15:14:00,87.8,67.0,30.14,SSE,161,3.0,7.0,51,0.00,,,0.00,weatherlink.com 1.10,2013-01-09 20:14:00,
2013-01-09 15:29:00,86.4,67.0,30.15,East,94,3.0,11.0,52,0.00,,,0.00,weatherlink.com 1.10,2013-01-09 20:29:00,
2013-01-09 15:44:00,86.6,66.0,30.15,SE,126,1.0,7.0,51,0.00,,,0.00,weatherlink.com 1.10,2013-01-09 20:44:00,
2013-01-09 15:59:00,87.1,66.0,30.16,East,101,1.0,5.0,49,0.00,,,0.00,weatherlink.com 1.10,2013-01-09 20:59:00,
2013-01-09 16:14:00,85.7,66.0,30.16,ESE,103,2.0,8.0,52,0.00,,,0.00,weatherlink.com 1.10,2013-01-09 21:14:00,
2013-01-09 16:29:00,84.6,67.0,30.16,SE,134,2.0,3.0,55,0.00,,,0.00,weatherlink.com 1.10,2013-01-09 21:29:00,
2013-01-09 16:44:00,84.4,67.0,30.16,ESE,116,1.0,4.0,57,0.00,,,0.00,weatherlink.com 1.10,2013-01-09 21:44:00,
2013-01-09 16:59:00,83.3,67.0,30.16,ESE,119,3.0,5.0,58,0.00,,,0.00,weatherlink.com 1.10,2013-01-09 21:59:00,
2013-01-09 17:14:00,82.5,68.0,30.17,SE,125,5.0,5.0,61,0.00,,,0.00,weatherlink.com 1.10,2013-01-09 22:14:00,
2013-01-09 17:29:00,81.6,67.0,30.17,ESE,109,0.0,6.0,62,0.00,,,0.00,weatherlink.com 1.10,2013-01-09 22:29:00,
2013-01-09 17:44:00,80.5,68.0,30.17,East,101,0.0,3.0,65,0.00,,,0.00,weatherlink.com 1.10,2013-01-09 22:44:00,
2013-01-09 17:59:00,79.5,68.0,30.18,East,101,0.0,1.0,67,0.00,,,0.00,weatherlink.com 1.10,2013-01-09 22:59:00,
2013-01-09 18:14:00,78.5,68.0,30.18,ESE,103,0.0,3.0,69,0.00,,,0.00,weatherlink.com 1.10,2013-01-09 23:14:00,
2013-01-09 18:29:00,77.8,68.0,30.19,ESE,112,0.0,2.0,71,0.00,,,0.00,weatherlink.com 1.10,2013-01-09 23:29:00,
2013-01-09 18:44:00,77.3,68.0,30.19,SE,130,1.0,3.0,73,0.00,,,0.00,weatherlink.com 1.10,2013-01-09 23:44:00,
2013-01-09 18:59:00,76.9,68.0,30.19,ESE,114,1.0,4.0,74,0.00,,,0.00,weatherlink.com 1.10,2013-01-09 23:59:00,
2013-01-09 19:14:00,76.4,68.0,30.20,ESE,107,0.0,4.0,75,0.00,,,0.00,weatherlink.com 1.10,2013-01-10 00:14:00,
2013-01-09 19:29:00,75.8,68.0,30.20,ESE,110,1.0,4.0,76,0.00,,,0.00,weatherlink.com 1.10,2013-01-10 00:29:00,
2013-01-09 19:44:00,75.3,68.0,30.21,ESE,108,2.0,5.0,78,0.00,,,0.00,weatherlink.com 1.10,2013-01-10 00:44:00,
2013-01-09 19:59:00,75.0,68.0,30.21,ESE,114,3.0,6.0,78,0.00,,,0.00,weatherlink.com 1.10,2013-01-10 00:59:00,
2013-01-09 20:14:00,74.4,68.0,30.21,East,101,2.0,7.0,80,0.00,,,0.00,weatherlink.com 1.10,2013-01-10 01:14:00,
2013-01-09 20:29:00,74.1,68.0,30.21,East,95,3.0,6.0,82,0.00,,,0.00,weatherlink.com 1.10,2013-01-10 01:29:00,
2013-01-09 20:44:00,73.8,68.0,30.22,ESE,111,0.0,7.0,83,0.00,,,0.00,weatherlink.com 1.10,2013-01-10 01:44:00,
2013-01-09 20:59:00,73.5,68.0,30.22,East,90,1.0,5.0,84,0.00,,,0.00,weatherlink.com 1.10,2013-01-10 01:59:00,
2013-01-09 21:14:00,73.1,68.0,30.22,ESE,111,2.0,5.0,85,0.00,,,0.00,weatherlink.com 1.10,2013-01-10 02:14:00,
2013-01-09 21:29:00,72.9,69.0,30.22,SE,125,2.0,5.0,86,0.00,,,0.00,weatherlink.com 1.10,2013-01-10 02:29:00,
2013-01-09 21:44:00,72.4,68.0,30.22,ESE,118,1.0,5.0,87,0.00,,,0.00,weatherlink.com 1.10,2013-01-10 02:44:00,
2013-01-09 21:59:00,72.0,68.0,30.22,ENE,65,0.0,4.0,88,0.00,,,0.00,weatherlink.com 1.10,2013-01-10 02:59:00,
2013-01-09 22:14:00,71.8,69.0,30.23,SE,138,0.0,4.0,89,0.00,,,0.00,weatherlink.com 1.10,2013-01-10 03:14:00,
2013-01-09 22:29:00,71.6,68.0,30.23,East,98,1.0,4.0,89,0.00,,,0.00,weatherlink.com 1.10,2013-01-10 03:29:00,
2013-01-09 22:44:00,71.5,68.0,30.23,SSE,149,0.0,3.0,89,0.00,,,0.00,weatherlink.com 1.10,2013-01-10 03:44:00,
2013-01-09 22:59:00,71.4,68.0,30.23,ESE,106,1.0,3.0,90,0.00,,,0.00,weatherlink.com 1.10,2013-01-10 03:59:00,
2013-01-09 23:14:00,71.5,69.0,30.23,ESE,115,0.0,5.0,90,0.00,,,0.00,weatherlink.com 1.10,2013-01-10 04:14:00,
2013-01-09 23:29:00,71.7,69.0,30.24,SE,127,0.0,5.0,90,0.00,,,0.00,weatherlink.com 1.10,2013-01-10 04:29:00,
2013-01-09 23:44:00,71.8,69.0,30.24,ESE,113,0.0,4.0,90,0.00,,,0.00,weatherlink.com 1.10,2013-01-10 04:44:00,
2013-01-09 23:59:00,71.8,69.0,30.24,ESE,103,0.0,3.0,89,0.00,,,0.00,weatherlink.com 1.10,2013-01-10 04:59:00,